createdAt,value
2022-11-07T00:02:11.383Z,99900.13
2022-11-07T00:07:14.138Z,99911.72
2022-11-07T00:12:18.080Z,99904.78
2022-11-07T00:17:20.688Z,99895.16
2022-11-07T00:22:23.318Z,99898.28
2022-11-07T00:27:27.358Z,99885.69
2022-11-07T00:32:30.116Z,99874.38
2022-11-07T00:37:32.736Z,99871.69
2022-11-07T00:42:36.829Z,99872.81
2022-11-07T00:47:39.672Z,99878.19
2022-11-07T00:52:42.341Z,99894.47
2022-11-07T00:57:46.360Z,99895.97
2022-11-07T01:03:09.598Z,99914.47
2022-11-07T01:08:12.199Z,99933.94
2022-11-07T01:13:16.597Z,99949.38
2022-11-07T01:18:19.428Z,99945.38
2022-11-07T01:23:22.883Z,99942.38
2022-11-07T01:28:26.856Z,99946.19
2022-11-07T01:33:29.587Z,99942.06
2022-11-07T01:38:32.214Z,99937.09
2022-11-07T01:43:46.852Z,99947.22
2022-11-07T01:48:51.059Z,99938.59
2022-11-07T01:53:53.814Z,99949.59
2022-11-07T01:58:57.801Z,99951.78
2022-11-07T02:04:00.457Z,99948.53
2022-11-07T02:09:06.155Z,99954.75
2022-11-07T02:14:15.730Z,99963.19
2022-11-07T02:19:19.808Z,99967.97
2022-11-07T02:24:26.200Z,99982.50
2022-11-07T02:29:28.849Z,99973.00
2022-11-07T02:34:31.495Z,99980.34
2022-11-07T02:39:35.503Z,99983.28
2022-11-07T02:44:40.237Z,99989.28
2022-11-07T02:49:42.919Z,99996.72
2022-11-07T02:54:46.887Z,99997.13
2022-11-07T02:59:49.716Z,100010.06
2022-11-07T03:04:52.470Z,100002.41
2022-11-07T03:09:56.517Z,100017.91
2022-11-07T03:14:59.317Z,100022.66
2022-11-07T03:20:02.024Z,100031.25
2022-11-07T03:25:06.933Z,100031.59
2022-11-07T03:30:10.705Z,100029.31
2022-11-07T03:35:13.331Z,100041.25
2022-11-07T03:40:17.584Z,100048.78
2022-11-07T03:45:20.373Z,100049.88
2022-11-07T03:50:23.008Z,100057.44
2022-11-07T03:55:27.036Z,100061.09
2022-11-07T04:00:29.727Z,100062.56
2022-11-07T04:05:32.429Z,100052.31
2022-11-07T04:10:36.436Z,100068.66
2022-11-07T04:15:56.747Z,100060.13
2022-11-07T04:20:59.350Z,100061.47
2022-11-07T04:26:21.015Z,100052.56
2022-11-07T04:31:25.743Z,100053.78
2022-11-07T04:36:28.366Z,100052.94
2022-11-07T04:41:32.400Z,100060.97
2022-11-07T04:46:35.159Z,100072.44
2022-11-07T04:51:42.078Z,100071.56
2022-11-07T04:56:46.060Z,100076.06
2022-11-07T05:01:49.012Z,100068.28
2022-11-07T05:06:51.740Z,100075.47
2022-11-07T05:11:55.954Z,100076.91
2022-11-07T05:16:58.577Z,100075.47
2022-11-07T05:22:18.628Z,100093.28
2022-11-07T05:27:22.714Z,100100.72
2022-11-07T05:32:25.366Z,100101.44
2022-11-07T05:37:28.022Z,100105.84
2022-11-07T05:42:32.064Z,100097.78
2022-11-07T05:47:34.688Z,100088.16
2022-11-07T05:52:37.375Z,100095.38
2022-11-07T05:57:41.428Z,100117.16
2022-11-07T06:02:44.186Z,100105.59
2022-11-07T06:07:46.926Z,100114.63
2022-11-07T06:12:59.678Z,100121.69
2022-11-07T06:18:02.493Z,100131.44
2022-11-07T06:23:05.906Z,100133.13
2022-11-07T06:28:11.175Z,100138.38
2022-11-07T06:33:15.341Z,100150.81
2022-11-07T06:38:18.294Z,100155.09
2022-11-07T06:43:22.329Z,100161.19
2022-11-07T06:48:24.934Z,100168.25
2022-11-07T06:53:28.788Z,100170.09
2022-11-07T06:58:32.797Z,100172.75
2022-11-07T07:03:35.398Z,100156.78
2022-11-07T07:08:38.180Z,100173.88
2022-11-07T07:13:42.355Z,100164.97
2022-11-07T07:18:45.020Z,100157.66
2022-11-07T07:23:47.690Z,100152.16
2022-11-07T07:28:51.705Z,100168.78
2022-11-07T07:33:54.422Z,100161.34
2022-11-07T07:38:57.042Z,100157.69
2022-11-07T07:44:01.076Z,100158.28
2022-11-07T07:49:03.704Z,100172.66
2022-11-07T07:54:06.470Z,100184.38
2022-11-07T07:59:10.542Z,100177.19
2022-11-07T08:04:13.187Z,100186.94
2022-11-07T08:09:18.284Z,100187.19
2022-11-07T08:14:22.383Z,100195.22
2022-11-07T08:19:25.009Z,100195.22
2022-11-07T08:24:27.697Z,100200.84
2022-11-07T08:29:31.846Z,100200.22
2022-11-07T08:34:34.490Z,100198.88
2022-11-07T08:39:37.089Z,100210.97
2022-11-07T08:44:45.073Z,100217.16
2022-11-07T08:49:47.712Z,100217.50
2022-11-07T08:54:50.303Z,100208.91
2022-11-07T08:59:54.607Z,100201.44
2022-11-07T09:04:57.281Z,100210.09
2022-11-07T09:09:59.892Z,100211.47
2022-11-07T09:15:04.215Z,100196.72
2022-11-07T09:20:08.254Z,100201.59
2022-11-07T09:25:11.289Z,100198.78
2022-11-07T09:30:15.494Z,100202.63
2022-11-07T09:35:18.350Z,100193.63
2022-11-07T09:40:25.454Z,100186.28
2022-11-07T09:45:29.668Z,100193.66
2022-11-07T09:50:33.154Z,100187.72
2022-11-07T09:55:37.383Z,100190.81
2022-11-07T10:00:41.450Z,100186.69
2022-11-07T10:05:51.343Z,100188.69
2022-11-07T10:10:56.394Z,100192.66
2022-11-07T10:16:04.887Z,100190.25
2022-11-07T10:21:38.772Z,100194.19
2022-11-07T10:26:32.024Z,100200.03
2022-11-07T10:31:39.528Z,100184.81
2022-11-07T10:36:42.205Z,100177.41
2022-11-07T10:41:46.145Z,100176.94
2022-11-07T10:46:53.412Z,100176.94
2022-11-07T10:52:07.097Z,100181.69
2022-11-07T10:57:12.880Z,100179.41
2022-11-07T11:02:21.212Z,100187.19
2022-11-07T11:07:28.573Z,100182.69
2022-11-07T11:12:34.351Z,100184.97
2022-11-07T11:17:39.162Z,100176.94
2022-11-07T11:22:42.612Z,100192.63
2022-11-07T11:27:45.336Z,100189.00
2022-11-07T11:32:51.419Z,100188.47
2022-11-07T11:37:57.923Z,100192.72
2022-11-07T11:43:01.670Z,100194.56
2022-11-07T11:48:12.966Z,100197.34
2022-11-07T11:53:17.197Z,100191.16
2022-11-07T11:58:27.171Z,100194.91
2022-11-07T12:03:48.790Z,100202.84
2022-11-07T12:09:17.363Z,100200.16
2022-11-07T12:14:49.617Z,100189.56
2022-11-07T12:19:58.230Z,100200.41
2022-11-07T12:25:03.160Z,100202.22
2022-11-07T12:30:10.272Z,100203.94
2022-11-07T12:35:27.734Z,100199.31
2022-11-07T12:40:33.277Z,100193.34
2022-11-07T12:45:46.655Z,100199.56
2022-11-07T12:50:53.607Z,100201.25
2022-11-07T12:55:58.433Z,100199.31
2022-11-07T13:01:01.109Z,100195.66
2022-11-07T13:06:08.293Z,100190.28
2022-11-07T13:11:14.753Z,100192.13
2022-11-07T13:16:25.349Z,100199.19
2022-11-07T13:21:29.387Z,100189.69
2022-11-07T13:26:48.188Z,100201.13
2022-11-07T13:31:57.024Z,100195.91
2022-11-07T13:37:02.769Z,100200.41
2022-11-07T13:42:05.521Z,100197.84
2022-11-07T13:47:10.729Z,100192.50
2022-11-07T13:52:18.315Z,100189.81
2022-11-07T13:57:24.537Z,100187.13
2022-11-07T14:02:28.272Z,100195.16
2022-11-07T14:07:34.834Z,100194.91
2022-11-07T14:12:38.038Z,100194.19
2022-11-07T14:17:40.684Z,100196.34
2022-11-07T14:22:51.200Z,100192.69
2022-11-07T14:27:53.905Z,100188.88
2022-11-07T14:32:57.507Z,100191.81
2022-11-07T14:38:09.012Z,100187.41
2022-11-07T14:43:12.832Z,100186.66
2022-11-07T14:48:16.642Z,100186.66
2022-11-07T14:53:23.230Z,100181.28
2022-11-07T14:58:26.581Z,100182.28
2022-11-07T15:03:32.162Z,100194.69
2022-11-07T15:08:36.898Z,100188.59
2022-11-07T15:13:39.637Z,100195.53
2022-11-07T15:18:43.387Z,100197.03
2022-11-07T15:23:47.387Z,100188.19
2022-11-07T15:28:51.046Z,100174.84
2022-11-07T15:33:53.986Z,100186.22
2022-11-07T15:39:00.405Z,100188.91
2022-11-07T15:44:03.207Z,100188.44
2022-11-07T15:49:06.185Z,100183.56
2022-11-07T15:54:12.667Z,100190.03
2022-11-07T15:59:18.613Z,100194.09
2022-11-07T16:04:21.614Z,100185.06
2022-11-07T16:09:33.334Z,100197.03
2022-11-07T16:14:44.191Z,100200.22
2022-11-07T16:19:47.442Z,100202.81
2022-11-07T16:24:51.401Z,100201.41
2022-11-07T16:29:54.061Z,100222.06
2022-11-07T16:34:56.708Z,100222.66
2022-11-07T16:40:00.759Z,100217.41
2022-11-07T16:45:03.469Z,100226.09
2022-11-07T16:50:06.902Z,100227.22
2022-11-07T16:55:17.043Z,100217.94
2022-11-07T17:00:21.202Z,100219.75
2022-11-07T17:05:23.865Z,100224.75
2022-11-07T17:10:27.913Z,100219.28
2022-11-07T17:15:30.594Z,100224.13
2022-11-07T17:21:03.495Z,100236.72
2022-11-07T17:25:59.573Z,100236.69
2022-11-07T17:31:02.245Z,100239.38
2022-11-07T17:36:05.766Z,100235.59
2022-11-07T17:41:18.054Z,100231.91
2022-11-07T17:46:21.760Z,100236.19
2022-11-07T17:51:26.538Z,100234.34
2022-11-07T17:56:31.215Z,100229.50
2022-11-07T18:01:34.857Z,100231.19
2022-11-07T18:06:38.326Z,100228.38
2022-11-07T18:11:42.395Z,100228.25
2022-11-07T18:16:45.024Z,100225.47
2022-11-07T18:21:47.769Z,100221.66
2022-11-07T18:26:51.921Z,100224.94
2022-11-07T18:31:54.736Z,100223.84
2022-11-07T18:36:57.565Z,100228.13
2022-11-07T18:42:02.852Z,100218.94
2022-11-07T18:47:05.649Z,100219.81
2022-11-07T18:52:08.354Z,100230.28
2022-11-07T18:57:12.538Z,100230.28
2022-11-07T19:02:15.518Z,100240.94
2022-11-07T19:07:18.215Z,100252.53
2022-11-07T19:12:22.310Z,100244.47
2022-11-07T19:17:26.597Z,100247.75
2022-11-07T19:22:29.273Z,100249.31
2022-11-07T19:27:34.748Z,100250.16
2022-11-07T19:32:37.416Z,100237.72
2022-11-07T19:37:40.042Z,100245.91
2022-11-07T19:42:44.030Z,100254.69
2022-11-07T19:47:46.879Z,100259.69
2022-11-07T19:52:49.615Z,100265.66
2022-11-07T19:57:53.715Z,100272.59
2022-11-07T20:02:56.359Z,100272.75
2022-11-07T20:08:03.761Z,100274.44
2022-11-07T20:13:09.124Z,100282.63
2022-11-07T20:18:11.803Z,100286.19
2022-11-07T20:23:14.651Z,100289.72
2022-11-07T20:28:18.946Z,100304.75
2022-11-07T20:33:21.649Z,100300.34
2022-11-07T20:38:24.334Z,100287.03
2022-11-07T20:43:30.753Z,100281.53
2022-11-07T20:48:33.791Z,100299.47
2022-11-07T20:53:37.996Z,100304.00
2022-11-07T20:58:42.847Z,100293.03
2022-11-07T21:03:45.553Z,100298.28
2022-11-07T21:08:50.171Z,100300.09
2022-11-07T21:13:54.311Z,100299.97
2022-11-07T21:18:57.242Z,100293.75
2022-11-07T21:24:00.038Z,100293.13
2022-11-07T21:29:05.880Z,100290.34
2022-11-07T21:34:09.551Z,100291.09
2022-11-07T21:39:12.442Z,100293.78
2022-11-07T21:44:16.448Z,100286.56
2022-11-07T21:49:19.077Z,100280.47
2022-11-07T21:54:21.906Z,100290.13
2022-11-07T21:59:25.998Z,100289.00
2022-11-07T22:04:28.614Z,100285.47
2022-11-07T22:09:31.246Z,100288.16
2022-11-07T22:14:35.328Z,100286.19
2022-11-07T22:19:37.995Z,100281.53
2022-11-07T22:24:40.613Z,100265.41
2022-11-07T22:29:44.619Z,100271.75
2022-11-07T22:34:47.311Z,100272.59
2022-11-07T22:39:49.942Z,100277.75
2022-11-07T22:44:53.920Z,100276.16
2022-11-07T22:49:56.523Z,100275.06
2022-11-07T22:54:59.202Z,100277.88
2022-11-07T23:00:20.109Z,100272.75
2022-11-07T23:05:23.915Z,100270.53
2022-11-07T23:10:26.721Z,100267.00
2022-11-07T23:15:31.598Z,100273.09
2022-11-07T23:20:51.691Z,100271.63
2022-11-07T23:25:54.278Z,100269.69
2022-11-07T23:30:58.186Z,100270.41
2022-11-07T23:36:01.162Z,100267.72
2022-11-07T23:41:04.091Z,100267.72
2022-11-07T23:46:25.766Z,100264.91
2022-11-07T23:51:28.475Z,100271.25
2022-11-07T23:56:31.132Z,100264.75
